Time;durP1;ratioP1;P1;durP2;ratioP2;P2;SDS_P1;SDS_P2;PMS_P1;PMS_P2;Temp;Humidity;BMP_temperature;BMP_pressure;BME280_temperature;BME280_humidity;BME280_pressure;Samples;Min_cycle;Max_cycle;Signal;HPM_P1;HPM_P2
2021/07/08 00:01:04;;;;;;;9.75;4.67;;;;;;;18.92;81.05;100802.72;1700933;84;21171;-74
2021/07/08 00:03:31;;;;;;;11.35;4.30;;;;;;;18.96;81.53;100814.08;1691132;84;21080;-75
2021/07/08 00:05:58;;;;;;;10.35;3.90;;;;;;;18.96;81.86;100806.93;1672915;85;21164;-73
2021/07/08 00:08:25;;;;;;;6.55;3.40;;;;;;;18.97;81.76;100804.62;1672903;85;22234;-74
2021/07/08 00:10:54;;;;;;;7.35;3.20;;;;;;;18.94;81.44;100810.16;1673135;85;21096;-73
2021/07/08 00:13:24;;;;;;;8.53;3.92;;;;;;;18.94;81.65;100806.16;1690396;84;21063;-73
2021/07/08 00:15:52;;;;;;;8.03;3.42;;;;;;;18.94;80.62;100803.97;1662785;86;22018;-75
2021/07/08 00:18:21;;;;;;;9.63;3.62;;;;;;;18.95;80.61;100813.20;1690362;84;21123;-74
2021/07/08 00:20:48;;;;;;;7.05;3.87;;;;;;;18.95;80.74;100817.20;1690648;84;21128;-74
2021/07/08 00:23:17;;;;;;;7.17;4.37;;;;;;;18.94;79.54;100811.50;1662354;86;21000;-74
2021/07/08 00:25:45;;;;;;;6.45;4.42;;;;;;;18.93;79.50;100809.77;1661188;86;21575;-74
2021/07/08 00:28:13;;;;;;;14.63;4.40;;;;;;;18.94;79.63;100817.31;1679838;84;21100;-74
2021/07/08 00:30:41;;;;;;;11.73;4.97;;;;;;;18.92;80.11;100809.87;1704234;84;21057;-74
2021/07/08 00:33:08;;;;;;;12.43;5.12;;;;;;;18.91;80.97;100817.03;1704086;84;21149;-74
2021/07/08 00:35:36;;;;;;;10.80;4.60;;;;;;;18.89;81.55;100816.72;1704098;84;21235;-73
2021/07/08 00:38:04;;;;;;;7.80;4.97;;;;;;;18.85;81.65;100816.06;1704045;84;21125;-73
2021/07/08 00:40:32;;;;;;;10.35;4.65;;;;;;;18.84;82.38;100815.66;1704000;84;21627;-74
2021/07/08 00:42:59;;;;;;;10.68;4.70;;;;;;;18.79;83.05;100815.09;1705401;82;21073;-75
2021/07/08 00:45:26;;;;;;;9.40;4.72;;;;;;;18.75;82.94;100817.06;1733770;82;21608;-75
2021/07/08 00:47:54;;;;;;;9.10;4.97;;;;;;;18.73;83.05;100819.45;1733496;82;21030;-74
2021/07/08 00:50:29;;;;;;;7.87;4.90;;;;;;;18.72;83.64;100820.38;1733528;82;21093;-74
2021/07/08 00:52:56;;;;;;;11.60;4.85;;;;;;;18.68;84.04;100813.50;1735005;80;21086;-75
2021/07/08 00:55:22;;;;;;;9.55;5.10;;;;;;;18.64;84.31;100816.37;1733724;82;20994;-73
2021/07/08 00:57:53;;;;;;;5.95;4.37;;;;;;;18.63;84.41;100817.33;1733406;82;22224;-74
2021/07/08 01:00:27;;;;;;;23.38;5.55;;;;;;;18.60;84.24;100812.16;1706502;82;21081;-74
2021/07/08 01:02:55;;;;;;;12.50;5.40;;;;;;;18.60;84.54;100817.97;1704291;84;21054;-72
2021/07/08 01:05:26;;;;;;;8.48;4.60;;;;;;;18.58;84.23;100815.39;1704062;84;21203;-74
2021/07/08 01:07:53;;;;;;;14.07;5.55;;;;;;;18.57;84.50;100808.35;1703826;84;21125;-74
2021/07/08 01:10:20;;;;;;;10.10;5.22;;;;;;;18.56;84.78;100811.95;1703914;84;21118;-74
2021/07/08 01:12:47;;;;;;;10.50;5.15;;;;;;;18.47;84.85;100805.83;1703976;84;21035;-74
2021/07/08 01:15:14;;;;;;;7.50;4.90;;;;;;;18.53;85.04;100814.81;1703981;84;21089;-74
2021/07/08 01:17:44;;;;;;;10.45;5.10;;;;;;;18.52;85.31;100819.78;1703771;84;21584;-74
2021/07/08 01:20:14;;;;;;;15.23;5.50;;;;;;;18.52;85.45;100821.11;1703724;84;21089;-74
2021/07/08 01:22:41;;;;;;;17.17;5.60;;;;;;;18.53;85.51;100820.63;1703701;84;21155;-73
2021/07/08 01:25:11;;;;;;;6.80;4.65;;;;;;;18.51;85.39;100828.71;1703846;83;21026;-76
2021/07/08 01:27:38;;;;;;;13.33;4.97;;;;;;;18.49;85.65;100826.60;1705912;83;21195;-75
2021/07/08 01:30:07;;;;;;;8.25;5.00;;;;;;;18.46;85.80;100828.12;1717450;83;21116;-74
2021/07/08 01:32:34;;;;;;;10.13;5.33;;;;;;;18.45;85.88;100835.76;1717377;83;21065;-73
2021/07/08 01:35:01;;;;;;;6.85;4.12;;;;;;;18.42;86.03;100835.92;1717550;83;21135;-75
2021/07/08 01:37:28;;;;;;;8.30;5.00;;;;;;;18.40;85.98;100841.36;1717729;83;20999;-75
2021/07/08 01:40:00;;;;;;;9.90;4.70;;;;;;;18.37;86.47;100839.33;1717579;83;22150;-76
2021/07/08 01:42:29;;;;;;;9.20;4.65;;;;;;;18.36;86.72;100829.63;1717664;83;21104;-75
2021/07/08 01:44:56;;;;;;;;;;;;;;;18.35;86.73;100833.23;1719977;83;21065;-74
2021/07/08 01:47:23;;;;;;;11.85;5.47;;;;;;;18.33;86.87;100838.64;1717833;83;20737;-76
2021/07/08 01:49:50;;;;;;;13.30;5.45;;;;;;;18.32;87.01;100833.42;1717460;83;21085;-75
2021/07/08 01:52:18;;;;;;;9.18;5.25;;;;;;;18.30;87.06;100830.83;1691743;83;21052;-75
2021/07/08 01:54:45;;;;;;;13.05;4.80;;;;;;;18.31;86.76;100843.68;1725678;82;21584;-76
2021/07/08 01:57:12;;;;;;;11.80;5.47;;;;;;;18.30;86.74;100847.31;1747801;82;21089;-75
2021/07/08 01:59:39;;;;;;;12.20;5.35;;;;;;;18.29;86.68;100844.23;1728694;82;21161;-76
2021/07/08 02:02:06;;;;;;;13.65;5.50;;;;;;;18.28;86.56;100847.87;1718038;83;21536;-77
2021/07/08 02:04:33;;;;;;;8.63;5.53;;;;;;;18.28;86.87;100845.20;1718010;83;21412;-76
2021/07/08 02:07:01;;;;;;;9.98;5.28;;;;;;;18.27;87.12;100836.35;1717628;83;21061;-76
2021/07/08 02:09:30;;;;;;;8.75;4.92;;;;;;;18.26;87.14;100844.42;1717876;83;21132;-74
2021/07/08 02:11:58;;;;;;;10.63;5.33;;;;;;;18.23;87.04;100843.66;1717646;83;21117;-74
2021/07/08 02:14:27;;;;;;;8.43;4.62;;;;;;;18.23;86.65;100841.47;1717655;83;21124;-73
2021/07/08 02:16:55;;;;;;;10.00;5.03;;;;;;;18.23;86.94;100848.98;1717479;83;21067;-73
2021/07/08 02:19:23;;;;;;;10.00;5.37;;;;;;;18.24;87.18;100854.72;1717690;83;21085;-74
2021/07/08 02:21:51;;;;;;;8.13;5.03;;;;;;;18.22;87.19;100847.28;1717448;83;21679;-74
2021/07/08 02:24:18;;;;;;;9.18;5.40;;;;;;;18.23;87.28;100846.32;1717482;83;21127;-75
2021/07/08 02:26:45;;;;;;;9.73;5.25;;;;;;;18.24;87.42;100852.50;1717217;82;21600;-73
2021/07/08 02:29:13;;;;;;;10.40;5.30;;;;;;;18.23;87.59;100854.31;1698723;83;21049;-72
2021/07/08 02:31:40;;;;;;;7.60;5.17;;;;;;;18.23;87.76;100854.31;1689000;83;21077;-74
2021/07/08 02:34:07;;;;;;;10.88;5.22;;;;;;;18.24;87.74;100861.39;1689117;84;21097;-73
2021/07/08 02:36:34;;;;;;;6.97;5.08;;;;;;;18.26;87.83;100863.09;1688795;84;21525;-73
2021/07/08 02:42:13;;;;;;;12.25;5.05;;;;;;;18.37;87.37;100859.33;1813573;79;22967;-73
2021/07/08 02:44:40;;;;;;;9.63;4.90;;;;;;;18.38;87.16;100865.92;1786884;80;21009;-73
2021/07/08 02:47:07;;;;;;;6.25;4.90;;;;;;;18.44;87.21;100868.21;1786824;80;21099;-73
2021/07/08 02:49:34;;;;;;;12.50;5.70;;;;;;;18.51;87.50;100866.05;1786716;80;21876;-74
2021/07/08 02:52:00;;;;;;;6.72;4.78;;;;;;;18.57;87.27;100867.03;1787217;80;20985;-75
2021/07/08 02:54:27;;;;;;;6.55;5.08;;;;;;;18.65;86.91;100862.09;1786793;80;21061;-74
2021/07/08 02:56:54;;;;;;;16.00;5.45;;;;;;;18.73;86.88;100858.98;1786700;80;21092;-74
2021/07/08 02:59:21;;;;;;;12.50;5.97;;;;;;;18.82;86.57;100865.14;1785445;80;21097;-75
2021/07/08 03:01:48;;;;;;;12.43;6.15;;;;;;;18.93;85.85;100864.47;1757417;80;21105;-74
2021/07/08 03:04:15;;;;;;;11.28;5.72;;;;;;;19.05;85.22;100863.75;1747535;82;21041;-73
2021/07/08 03:06:42;;;;;;;7.90;5.22;;;;;;;19.18;84.26;100860.32;1747599;82;21037;-74
2021/07/08 03:09:09;;;;;;;11.85;6.00;;;;;;;19.32;83.88;100863.00;1747525;82;21624;-74
2021/07/08 03:11:36;;;;;;;10.23;6.08;;;;;;;19.44;83.35;100860.91;1747541;81;21055;-73
2021/07/08 03:14:05;;;;;;;10.30;6.05;;;;;;;19.59;82.57;100867.58;1747527;81;21493;-73
2021/07/08 03:16:31;;;;;;;14.45;6.37;;;;;;;19.71;81.79;100864.16;1747729;81;21725;-74
2021/07/08 03:19:01;;;;;;;14.85;6.35;;;;;;;19.85;81.37;100866.83;1747552;82;21373;-75
2021/07/08 03:21:28;;;;;;;18.50;5.75;;;;;;;20.00;81.14;100872.13;1747811;82;21033;-78
2021/07/08 03:23:55;;;;;;;12.85;5.72;;;;;;;20.12;80.28;100865.98;1751539;80;21311;-77
2021/07/08 03:26:22;;;;;;;12.47;5.80;;;;;;;20.24;78.97;100871.85;1784906;80;21103;-76
2021/07/08 03:28:49;;;;;;;11.63;5.55;;;;;;;20.41;78.91;100871.24;1784594;80;21120;-75
2021/07/08 03:31:18;;;;;;;10.80;5.50;;;;;;;20.54;78.14;100873.00;1784115;80;21040;-77
2021/07/08 03:33:45;;;;;;;11.20;5.33;;;;;;;20.70;76.99;100877.33;1785089;80;21049;-79
2021/07/08 03:36:12;;;;;;;10.45;5.15;;;;;;;20.85;76.63;100878.13;1785245;80;21119;-79
2021/07/08 03:38:40;;;;;;;13.83;5.12;;;;;;;21.00;75.97;100877.05;1785377;80;21460;-79
2021/07/08 03:41:07;;;;;;;8.28;3.98;;;;;;;21.15;74.41;100882.70;1778966;80;21044;-78
2021/07/08 03:43:34;;;;;;;11.40;5.15;;;;;;;21.27;73.53;100878.79;1766428;81;21520;-79
2021/07/08 03:46:01;;;;;;;10.58;5.28;;;;;;;21.40;73.20;100878.34;1766151;81;21053;-77
2021/07/08 03:48:29;;;;;;;12.47;5.05;;;;;;;21.58;71.74;100873.02;1766421;81;21528;-75
2021/07/08 03:50:56;;;;;;;9.38;5.28;;;;;;;21.74;71.26;100879.48;1766536;81;21084;-76
2021/07/08 03:53:24;;;;;;;12.60;6.22;;;;;;;21.90;69.65;100877.89;1766119;81;21002;-77
2021/07/08 03:55:52;;;;;;;13.88;5.12;;;;;;;22.11;69.23;100882.16;1765802;81;20998;-75
2021/07/08 03:58:19;;;;;;;18.98;5.40;;;;;;;22.27;68.45;100883.27;1765809;81;22191;-75
2021/07/08 04:00:46;;;;;;;6.60;4.83;;;;;;;22.44;67.77;100886.52;1765963;81;21629;-76
2021/07/08 04:03:16;;;;;;;11.63;4.97;;;;;;;22.60;67.14;100891.09;1765833;81;22258;-76
2021/07/08 04:05:43;;;;;;;12.35;5.00;;;;;;;22.74;66.82;100889.55;1765868;81;21449;-76
2021/07/08 04:08:10;;;;;;;14.18;5.05;;;;;;;22.93;65.81;100893.52;1765860;80;21552;-77
2021/07/08 04:10:40;;;;;;;11.48;4.67;;;;;;;23.10;65.28;100895.80;1765463;81;21567;-75
2021/07/08 04:13:13;;;;;;;12.40;4.83;;;;;;;23.23;64.01;100896.53;1766189;81;21592;-76
2021/07/08 04:15:41;;;;;;;13.20;4.92;;;;;;;23.31;63.73;100897.30;1765284;81;21092;-78
2021/07/08 04:18:09;;;;;;;13.05;5.22;;;;;;;23.40;63.57;100899.75;1766080;80;21001;-76
2021/07/08 04:20:37;;;;;;;12.75;5.22;;;;;;;23.58;63.58;100902.80;1765682;81;21024;-76
2021/07/08 04:23:05;;;;;;;13.20;4.87;;;;;;;23.82;62.28;100897.34;1765629;81;21006;-75
2021/07/08 04:25:33;;;;;;;11.03;4.58;;;;;;;24.05;61.68;100905.73;1765757;81;21140;-76
2021/07/08 04:28:01;;;;;;;10.93;4.40;;;;;;;24.27;60.97;100903.50;1765775;81;21155;-75
2021/07/08 04:30:29;;;;;;;8.08;4.50;;;;;;;24.41;59.05;100906.39;1765502;80;21084;-74
2021/07/08 04:32:56;;;;;;;10.45;4.33;;;;;;;24.54;59.34;100905.39;1765823;81;21531;-74
2021/07/08 04:38:01;;;;;;;14.38;4.67;;;;;;;24.91;58.23;100912.56;1727707;81;21096;-79
2021/07/08 04:40:30;;;;;;;13.98;4.60;;;;;;;25.10;57.63;100909.17;1747015;81;20998;-76
2021/07/08 04:42:57;;;;;;;12.88;4.42;;;;;;;25.34;57.26;100919.69;1756729;81;20988;-76
2021/07/08 04:45:24;;;;;;;15.35;4.67;;;;;;;25.51;56.27;100910.99;1695040;84;21070;-77
2021/07/08 04:47:51;;;;;;;16.27;4.83;;;;;;;25.70;55.84;100918.31;1736011;82;21604;-73
2021/07/08 04:50:20;;;;;;;8.20;4.50;;;;;;;25.87;55.61;100921.38;1735367;82;21116;-79
2021/07/08 04:52:48;;;;;;;13.32;4.85;;;;;;;25.96;54.35;100920.56;1695926;84;21002;-78
2021/07/08 04:55:16;;;;;;;8.33;3.95;;;;;;;26.06;54.34;100920.58;1737152;79;21697;-81
2021/07/08 04:57:45;;;;;;;15.85;4.90;;;;;;;26.18;52.71;100919.97;1736695;82;21014;-79
2021/07/08 05:00:14;;;;;;;13.68;5.35;;;;;;;26.09;53.25;100923.88;1755154;81;21049;-81
2021/07/08 05:02:42;;;;;;;5.53;4.05;;;;;;;26.03;53.81;100926.27;1742791;81;22139;-78
2021/07/08 05:05:11;;;;;;;8.50;4.22;;;;;;;26.15;52.69;100931.40;1735636;81;21556;-78
2021/07/08 05:07:39;;;;;;;12.65;4.47;;;;;;;26.40;52.34;100931.88;1736317;81;21027;-79
2021/07/08 05:10:13;;;;;;;13.18;4.65;;;;;;;26.58;52.46;100930.22;1735821;81;21596;-79
2021/07/08 05:12:41;;;;;;;12.95;5.10;;;;;;;26.75;51.80;100938.62;1735918;81;21088;-79
2021/07/08 05:15:14;;;;;;;20.02;4.78;;;;;;;26.96;52.26;100941.16;1740323;81;21525;-79
2021/07/08 05:17:41;;;;;;;7.22;4.00;;;;;;;27.20;51.71;100943.46;1748088;81;21073;-79
2021/07/08 05:20:10;;;;;;;7.28;4.35;;;;;;;27.48;49.97;100935.42;1751665;81;21496;-79
2021/07/08 05:22:39;;;;;;;15.75;5.65;;;;;;;27.62;49.93;100941.70;1735740;81;21039;-79
2021/07/08 05:25:08;;;;;;;9.03;4.50;;;;;;;27.74;50.12;100944.56;1742939;81;21085;-78
2021/07/08 05:27:35;;;;;;;6.45;4.10;;;;;;;27.86;49.47;100940.35;1743417;81;21099;-80
2021/07/08 05:30:04;;;;;;;6.75;4.05;;;;;;;27.88;48.67;100942.41;1736092;81;21010;-81
2021/07/08 05:32:30;;;;;;;6.95;3.80;;;;;;;27.79;49.08;100943.64;1735791;81;21086;-80
2021/07/08 05:34:58;;;;;;;8.18;4.05;;;;;;;27.82;48.76;100944.69;1734869;81;21054;-81
2021/07/08 05:37:25;;;;;;;6.25;3.60;;;;;;;27.93;47.80;100942.80;1734785;82;21573;-78
2021/07/08 05:39:52;;;;;;;6.05;3.45;;;;;;;28.08;48.47;100938.61;1741835;81;21093;-79
2021/07/08 05:42:19;;;;;;;20.52;4.03;;;;;;;28.29;47.83;100940.20;1735430;81;21041;-80
2021/07/08 05:44:47;;;;;;;5.40;3.30;;;;;;;28.57;47.33;100947.28;1695171;84;22158;-84
2021/07/08 05:47:16;;;;;;;6.47;3.72;;;;;;;28.78;46.07;100951.07;1739423;81;21096;-83
2021/07/08 05:49:43;;;;;;;5.78;3.60;;;;;;;28.98;45.04;100949.02;1679560;84;21093;-81
2021/07/08 05:52:10;;;;;;;8.48;3.50;;;;;;;29.07;44.48;100944.04;1750374;81;21764;-82
2021/07/08 05:54:37;;;;;;;7.53;3.83;;;;;;;29.12;44.27;100945.44;1741522;81;21137;-82
2021/07/08 05:57:06;;;;;;;8.90;3.55;;;;;;;29.29;44.36;100951.34;1756592;81;21065;-82
2021/07/08 05:59:34;;;;;;;7.72;3.40;;;;;;;29.38;44.65;100953.09;1754860;81;20998;-80
2021/07/08 06:02:01;;;;;;;8.48;4.03;;;;;;;29.38;43.78;100957.17;1765695;81;21037;-83
2021/07/08 06:04:29;;;;;;;9.05;3.20;;;;;;;29.57;43.50;100950.66;1751996;81;21094;-82
2021/07/08 06:06:56;;;;;;;13.40;3.65;;;;;;;29.81;42.83;100954.03;1739697;81;21064;-83
2021/07/08 06:09:23;;;;;;;6.70;3.47;;;;;;;30.03;42.56;100953.13;1695499;84;21161;-83
2021/07/08 06:11:51;;;;;;;8.33;3.92;;;;;;;30.28;41.33;100951.38;1743924;81;21703;-81
2021/07/08 06:14:18;;;;;;;6.92;3.52;;;;;;;30.39;41.89;100948.84;1742747;81;21017;-83
2021/07/08 06:16:46;;;;;;;6.75;3.70;;;;;;;30.50;41.06;100943.94;1736935;81;21190;-82
2021/07/08 06:19:13;;;;;;;9.75;3.27;;;;;;;30.63;40.88;100942.10;1747222;81;21061;-83
2021/07/08 06:21:40;;;;;;;4.85;3.00;;;;;;;30.83;39.48;100943.13;1752512;80;21116;-80
2021/07/08 06:24:09;;;;;;;12.53;3.30;;;;;;;30.87;38.60;100944.52;1752556;81;21017;-81
2021/07/08 06:26:36;;;;;;;5.40;2.70;;;;;;;30.84;37.89;100946.20;1745230;81;21033;-81
2021/07/08 06:29:03;;;;;;;5.37;2.70;;;;;;;30.94;37.85;100939.61;1762955;81;21085;-83
2021/07/08 06:31:32;;;;;;;6.53;2.92;;;;;;;31.13;37.88;100939.77;1744967;80;21639;-84
2021/07/08 06:33:59;;;;;;;4.55;2.70;;;;;;;31.28;37.20;100947.22;1737914;81;21017;-83
2021/07/08 06:36:26;;;;;;;15.08;3.12;;;;;;;31.45;36.25;100950.30;1736273;81;21070;-85
2021/07/08 06:38:53;;;;;;;7.87;2.98;;;;;;;31.45;35.89;100950.30;1735769;81;22028;-83
2021/07/08 06:41:20;;;;;;;4.55;2.90;;;;;;;31.68;36.97;100952.26;1736084;81;21485;-83
2021/07/08 06:43:47;;;;;;;5.92;2.67;;;;;;;31.68;36.97;100952.26;1735713;81;21021;-82
2021/07/08 06:46:17;;;;;;;12.28;3.08;;;;;;;31.80;35.99;100953.59;1741584;81;21041;-82
2021/07/08 06:48:46;;;;;;;5.12;2.87;;;;;;;32.00;35.36;100953.20;1765855;81;21025;-82
2021/07/08 06:51:13;;;;;;;10.93;3.40;;;;;;;32.13;34.17;100957.57;1751183;80;21531;-82
2021/07/08 06:53:40;;;;;;;8.10;2.67;;;;;;;32.28;34.41;100958.52;1736137;81;21513;-83
2021/07/08 06:56:08;;;;;;;4.83;2.58;;;;;;;32.33;34.71;100956.09;1745917;81;20951;-81
2021/07/08 06:58:35;;;;;;;6.58;2.85;;;;;;;32.54;34.06;100957.38;1736837;81;21074;-83
2021/07/08 07:01:02;;;;;;;6.20;2.70;;;;;;;32.76;33.67;100963.36;1736149;81;21045;-82
2021/07/08 07:03:34;;;;;;;7.78;2.80;;;;;;;32.94;32.63;100960.81;1734688;81;21070;-83
2021/07/08 07:05:57;;;;;;;7.12;2.58;;;;;;;32.93;31.95;100961.34;1743017;81;21498;-82
2021/07/08 07:08:25;;;;;;;6.45;2.80;;;;;;;32.92;32.40;100953.32;1746834;81;21064;-83
2021/07/08 07:10:52;;;;;;;12.18;2.20;;;;;;;33.00;32.05;100954.11;1736697;81;21106;-84
2021/07/08 07:13:20;;;;;;;7.65;2.50;;;;;;;33.01;31.25;100954.45;1757958;81;22127;-83
2021/07/08 07:15:47;;;;;;;6.47;2.70;;;;;;;33.02;31.37;100959.39;1741912;81;21045;-83
2021/07/08 07:18:14;;;;;;;8.78;2.70;;;;;;;33.14;31.37;100963.39;1748932;81;21728;-83
2021/07/08 07:20:41;;;;;;;10.18;2.42;;;;;;;33.25;31.61;100970.83;1694264;84;21569;-84
2021/07/08 07:23:08;;;;;;;9.93;2.62;;;;;;;33.47;30.92;100968.53;1736906;81;21020;-83
2021/07/08 07:25:40;;;;;;;11.20;2.10;;;;;;;33.50;30.72;100970.91;1736442;81;21049;-82
2021/07/08 07:28:05;;;;;;;5.58;1.92;;;;;;;33.64;28.62;100963.27;1743596;81;21018;-83
2021/07/08 07:30:32;;;;;;;4.50;1.85;;;;;;;33.63;29.24;100971.11;1749992;81;21117;-83
2021/07/08 07:32:59;;;;;;;5.40;2.12;;;;;;;33.70;29.67;100971.73;1749611;81;21536;-84
2021/07/08 07:35:26;;;;;;;5.30;2.20;;;;;;;33.77;30.01;100969.41;1743602;81;21023;-86
2021/07/08 07:37:53;;;;;;;4.22;2.15;;;;;;;33.87;30.00;100963.69;1734115;81;21568;-82
2021/07/08 07:40:20;;;;;;;5.60;2.80;;;;;;;33.99;30.51;100964.89;1757147;81;21002;-83
2021/07/08 07:42:50;;;;;;;3.85;2.45;;;;;;;34.09;31.05;100965.95;1737470;81;21613;-83
2021/07/08 07:45:17;;;;;;;4.15;2.27;;;;;;;34.20;31.24;100961.92;1740235;81;21032;-83
2021/07/08 07:47:46;;;;;;;6.58;2.80;;;;;;;34.17;31.24;100962.32;1752263;81;20994;-84
2021/07/08 07:50:12;;;;;;;6.47;3.12;;;;;;;34.08;31.23;100967.53;1745402;81;21042;-85
2021/07/08 07:52:39;;;;;;;5.90;3.00;;;;;;;34.00;32.05;100963.84;1739510;81;21009;-82
2021/07/08 07:55:06;;;;;;;8.38;2.70;;;;;;;33.81;32.35;100975.36;1739880;81;21149;-85
2021/07/08 07:57:33;;;;;;;10.55;3.27;;;;;;;33.77;32.66;100968.58;1755059;81;21548;-80
2021/07/08 08:00:01;;;;;;;6.58;3.05;;;;;;;33.94;32.49;100967.36;1741364;81;21082;-79
2021/07/08 08:02:28;;;;;;;12.28;3.12;;;;;;;34.10;31.97;100968.23;1770122;81;21057;-81
2021/07/08 08:10:19;;;;;;;9.53;2.90;;;;;;;34.50;30.62;100970.89;1766129;81;20958;-83
2021/07/08 08:12:47;;;;;;;12.30;3.17;;;;;;;34.48;30.18;100979.80;1755383;81;21001;-84
2021/07/08 08:15:15;;;;;;;7.30;2.75;;;;;;;34.41;30.35;100979.72;1742993;81;21127;-83
2021/07/08 08:17:42;;;;;;;11.78;3.22;;;;;;;34.53;30.75;100977.86;1765510;81;21500;-86
2021/07/08 08:20:10;;;;;;;10.65;2.98;;;;;;;34.77;29.88;100970.68;1770035;81;21527;-84
2021/07/08 08:22:38;;;;;;;16.50;3.83;;;;;;;34.86;29.79;100976.88;1770586;81;21017;-83
2021/07/08 08:25:06;;;;;;;11.22;2.95;;;;;;;34.88;30.03;100978.37;1770501;81;21595;-83
2021/07/08 08:27:33;;;;;;;13.30;2.95;;;;;;;34.83;28.69;100976.75;1768974;79;21073;-78
2021/07/08 08:30:00;;;;;;;9.05;3.08;;;;;;;34.75;28.38;100980.13;1767378;81;21061;-77
2021/07/08 08:32:27;;;;;;;11.12;2.80;;;;;;;34.81;28.39;100979.33;1768852;81;21030;-79
2021/07/08 08:34:53;;;;;;;5.50;2.42;;;;;;;34.91;27.45;100982.60;1768492;81;21042;-81
2021/07/08 08:37:21;;;;;;;6.05;2.30;;;;;;;34.97;27.43;100980.45;1766930;81;21084;-79
2021/07/08 08:39:48;;;;;;;11.03;2.60;;;;;;;35.15;26.60;100982.72;1747425;81;21041;-78
2021/07/08 08:42:16;;;;;;;15.75;2.67;;;;;;;35.33;27.01;100982.77;1749696;81;21096;-77
2021/07/08 08:44:43;;;;;;;9.08;2.60;;;;;;;35.38;27.09;100986.59;1770054;80;21310;-79
2021/07/08 08:47:12;;;;;;;3.75;2.20;;;;;;;35.20;26.39;100988.48;1747737;80;21076;-79
2021/07/08 08:49:40;;;;;;;7.62;2.45;;;;;;;34.91;26.99;100989.97;1745712;81;21041;-78
2021/07/08 08:52:09;;;;;;;7.55;2.47;;;;;;;34.70;27.62;100983.45;1749824;81;21057;-79
2021/07/08 08:54:36;;;;;;;6.85;2.37;;;;;;;34.36;29.17;100979.46;1739853;81;21476;-79
2021/07/08 08:57:03;;;;;;;4.70;2.45;;;;;;;34.24;29.13;100983.74;1742768;81;21089;-77
2021/07/08 08:59:31;;;;;;;15.43;2.87;;;;;;;34.30;29.72;100977.48;1751644;81;21144;-79
2021/07/08 09:02:18;;;;;;;7.67;2.50;;;;;;;34.52;28.82;100977.55;1740100;82;21081;-79
2021/07/08 09:04:47;;;;;;;3.22;2.33;;;;;;;34.60;28.19;100979.64;1738843;80;21484;-78
2021/07/08 09:07:30;;;;;;;8.90;2.60;;;;;;;34.36;29.16;100979.46;1749637;81;21539;-81
2021/07/08 09:10:01;;;;;;;19.98;2.62;;;;;;;34.09;29.63;100983.72;1745976;81;21248;-84
2021/07/08 09:12:28;;;;;;;14.10;2.55;;;;;;;33.76;28.62;100976.45;1730872;81;21017;-83
2021/07/08 09:15:17;;;;;;;5.92;2.30;;;;;;;33.66;29.37;100982.70;1754448;81;21497;-87
2021/07/08 09:17:45;;;;;;;7.17;3.03;;;;;;;33.67;27.76;100985.78;1753897;81;21473;-85
2021/07/08 09:20:19;;;;;;;6.45;2.72;;;;;;;33.81;27.85;100990.39;1761901;79;21601;-85
2021/07/08 09:22:47;;;;;;;5.35;2.20;;;;;;;33.99;27.82;100974.45;1759163;79;22122;-82
2021/07/08 09:25:25;;;;;;;10.43;2.67;;;;;;;33.82;27.19;100986.61;1759198;79;21100;-80
2021/07/08 09:28:21;;;;;;;3.08;2.30;;;;;;;33.80;27.33;100984.61;1751446;81;21522;-81
2021/07/08 09:31:03;;;;;;;3.90;1.90;;;;;;;34.02;26.22;100985.00;1741055;81;21103;-81
2021/07/08 09:33:39;;;;;;;9.58;2.27;;;;;;;34.00;26.96;100984.34;1747997;81;21042;-81
2021/07/08 09:36:15;;;;;;;4.15;2.22;;;;;;;34.07;27.89;100977.59;1752272;81;21391;-81
2021/07/08 09:38:47;;;;;;;6.53;2.45;;;;;;;34.62;27.10;100983.56;1756922;80;21125;-81
2021/07/08 09:41:18;;;;;;;11.97;3.33;;;;;;;34.92;26.01;100970.59;1749781;81;21616;-81
2021/07/08 09:43:46;;;;;;;3.83;2.02;;;;;;;34.82;25.69;100972.30;1748886;80;21072;-82
2021/07/08 09:46:14;;;;;;;7.20;2.12;;;;;;;34.95;25.78;100962.52;1756767;80;20981;-82
2021/07/08 09:49:07;;;;;;;3.27;1.60;;;;;;;35.36;25.02;100967.30;1752041;80;21113;-81
2021/07/08 09:51:35;;;;;;;5.28;1.92;;;;;;;35.62;23.63;100966.16;1714685;80;21209;-82
2021/07/08 09:54:26;;;;;;;3.90;2.30;;;;;;;35.59;23.68;100967.91;1773627;80;21025;-83
2021/07/08 09:56:55;;;;;;;10.08;2.60;;;;;;;35.63;24.18;100962.36;1758889;80;21033;-80
2021/07/08 09:59:27;;;;;;;2.92;1.80;;;;;;;35.99;24.55;100952.23;1734852;80;20997;-83
2021/07/08 10:01:56;;;;;;;8.60;2.22;;;;;;;36.59;23.32;100955.22;1761547;80;21675;-81
2021/07/08 10:04:23;;;;;;;8.48;2.45;;;;;;;36.66;23.39;100954.70;1755791;80;21048;-81
2021/07/08 10:06:51;;;;;;;7.78;2.10;;;;;;;36.38;23.79;100954.29;1763900;80;21124;-82
2021/07/08 10:09:19;;;;;;;7.83;2.60;;;;;;;36.15;24.30;100949.69;1758448;80;21500;-82
2021/07/08 10:11:54;;;;;;;9.93;2.83;;;;;;;35.93;25.06;100950.59;1754036;80;21033;-84
2021/07/08 10:14:23;;;;;;;17.45;2.50;;;;;;;36.13;24.84;100949.35;1758798;80;21040;-80
2021/07/08 10:16:52;;;;;;;12.95;2.47;;;;;;;36.47;24.39;100949.47;1683307;84;21082;-82
2021/07/08 10:19:22;;;;;;;4.70;2.13;;;;;;;36.47;24.58;100948.93;1704990;83;21045;-82
2021/07/08 10:21:52;;;;;;;7.25;2.10;;;;;;;36.03;24.91;100948.00;1720517;82;21074;-81
2021/07/08 10:24:19;;;;;;;14.80;2.10;;;;;;;35.87;24.81;100949.23;1756444;80;21048;-81
2021/07/08 10:26:47;;;;;;;14.95;2.17;;;;;;;35.97;25.33;100941.45;1759663;80;21137;-82
2021/07/08 10:29:16;;;;;;;4.10;2.00;;;;;;;35.90;24.62;100949.65;1757480;80;21611;-82
2021/07/08 10:31:49;;;;;;;4.42;2.15;;;;;;;35.56;25.07;100951.02;1691514;84;21096;-81
2021/07/08 10:34:18;;;;;;;4.28;2.10;;;;;;;35.39;25.10;100940.91;1701375;83;21596;-84
2021/07/08 10:36:53;;;;;;;13.90;2.80;;;;;;;35.33;26.15;100944.44;1720707;82;21039;-81
2021/07/08 10:39:22;;;;;;;11.38;2.40;;;;;;;35.18;26.16;100935.81;1719938;82;21140;-81
2021/07/08 10:41:53;;;;;;;7.75;2.65;;;;;;;35.14;26.38;100934.51;1760859;80;21593;-80
2021/07/08 10:44:40;;;;;;;;;;;;;;;35.23;26.88;100938.80;1753737;80;21033;-81
2021/07/08 10:47:23;;;;;;;6.67;2.30;;;;;;;35.37;26.89;100936.16;1754884;81;20485;-82
2021/07/08 10:49:49;;;;;;;13.43;2.50;;;;;;;35.36;26.38;100938.55;1708950;82;21044;-81
2021/07/08 10:52:22;;;;;;;5.25;2.27;;;;;;;35.57;26.60;100937.12;1739738;81;21555;-81
2021/07/08 10:54:52;;;;;;;5.15;2.42;;;;;;;35.62;25.98;100937.39;1739944;81;21093;-80
2021/07/08 10:57:37;;;;;;;5.12;2.45;;;;;;;35.59;25.43;100935.03;1757141;80;21045;-81
2021/07/08 11:00:12;;;;;;;8.33;2.42;;;;;;;35.41;25.96;100934.19;1743480;80;21049;-87
2021/07/08 11:02:54;;;;;;;4.50;2.00;;;;;;;35.28;26.76;100934.92;1719622;82;21046;-81
2021/07/08 11:05:55;;;;;;;6.85;2.25;;;;;;;35.39;26.34;100925.31;1751519;81;22021;-80
2021/07/08 11:08:53;;;;;;;3.60;2.00;;;;;;;35.83;25.54;100920.53;1739842;82;21095;-80
2021/07/08 11:11:25;;;;;;;8.40;2.10;;;;;;;36.08;24.75;100920.84;1739978;82;21065;-81
2021/07/08 11:13:58;;;;;;;6.17;2.17;;;;;;;35.65;23.71;100927.92;1752520;81;21044;-82
2021/07/08 11:16:52;;;;;;;6.45;2.12;;;;;;;35.13;24.17;100921.85;1745021;81;21037;-81
2021/07/08 11:19:27;;;;;;;6.50;2.10;;;;;;;34.92;24.78;100923.23;1756983;81;21057;-80
2021/07/08 11:22:03;;;;;;;4.72;2.40;;;;;;;35.00;26.04;100924.48;1758034;81;21863;-80
2021/07/08 11:24:52;;;;;;;3.98;2.12;;;;;;;35.05;26.15;100920.62;1751185;81;21069;-80
2021/07/08 11:27:31;;;;;;;7.60;2.35;;;;;;;35.09;25.96;100923.28;1764136;81;21046;-79
2021/07/08 11:30:17;;;;;;;6.33;2.12;;;;;;;34.96;26.00;100917.17;1740546;82;21659;-81
2021/07/08 11:32:47;;;;;;;6.47;2.30;;;;;;;34.75;26.83;100921.31;1739999;82;22109;-81
2021/07/08 11:38:03;;;;;;;8.95;2.35;;;;;;;34.25;28.25;100922.55;1764990;81;21135;-80
2021/07/08 11:40:42;;;;;;;4.75;2.10;;;;;;;34.25;27.99;100919.82;1740272;81;21600;-80
2021/07/08 11:43:17;;;;;;;10.05;2.30;;;;;;;34.37;27.78;100916.92;1740447;82;21077;-81
2021/07/08 11:45:45;;;;;;;4.78;2.25;;;;;;;34.27;27.07;100924.58;1757484;79;21509;-81